Terminal Aerodrome Forecast
Issued by NWS Corpus Christi, TX

Home | Current Version | Previous Version | Text Only | Print | Product List | Glossary On
Versions: 1 2 3 4 5 6 7 8 9 10 11 12 13
000
FTUS44 KCRP 040534
TAFCRP
TAF
KCRP 040534Z 0406/0506 14011KT P6SM SCT015 BKN250
     FM040900 14007KT P6SM BKN015 BKN250
     FM041500 13015G20KT P6SM SCT025 BKN050
     FM042000 14018G24KT P6SM FEW040 SCT100
     FM050100 13011KT P6SM SCT015 BKN250
      TEMPO 0503/0506 BKN015=

USA.gov is the U.S. government's official web portal to all federal, state and local government web resources and services.